Time;durP1;ratioP1;P1;durP2;ratioP2;P2;SDS_P1;SDS_P2;PMS_P1;PMS_P2;Temp;Humidity;BMP_temperature;BMP_pressure;BME280_temperature;BME280_humidity;BME280_pressure;Samples;Min_cycle;Max_cycle;Signal;HPM_P1;HPM_P2
2023/11/18 00:00:35;;;;;;;17.02;12.10;;;9.80;99.90;;;10.02;96.30;102149.13;4807615;29;20057;-63
2023/11/18 00:03:05;;;;;;;22.57;12.20;;;9.80;99.90;;;10.01;96.58;102148.22;4806779;29;20062;-63
2023/11/18 00:05:33;;;;;;;21.20;12.32;;;9.80;99.90;;;10.00;96.60;102146.47;4807415;29;20320;-63
2023/11/18 00:08:02;;;;;;;16.80;11.00;;;9.80;99.90;;;9.97;96.62;102141.09;4806902;29;20050;-64
2023/11/18 00:10:30;;;;;;;21.15;11.73;;;9.70;99.90;;;9.91;96.77;102137.47;4806813;29;20086;-64
2023/11/18 00:12:58;;;;;;;16.15;11.60;;;9.70;99.90;;;9.78;97.33;102133.69;4807298;29;20051;-64
2023/11/18 00:15:27;;;;;;;16.17;11.80;;;9.50;99.90;;;9.75;97.61;102131.00;4805798;29;20097;-64
2023/11/18 00:17:56;;;;;;;19.60;11.93;;;9.50;99.90;;;9.65;98.04;102136.97;4806729;29;20051;-64
2023/11/18 00:20:25;;;;;;;22.17;12.60;;;9.40;99.90;;;9.58;98.20;102131.53;4807449;29;20095;-64
2023/11/18 00:22:55;;;;;;;19.90;12.13;;;9.30;99.90;;;9.59;97.87;102136.84;4806503;29;20058;-63
2023/11/18 00:25:23;;;;;;;19.98;12.40;;;9.40;99.90;;;9.48;98.54;102130.47;4806962;29;20057;-63
2023/11/18 00:27:52;;;;;;;19.77;11.63;;;9.30;99.90;;;9.51;98.35;102134.91;4806834;29;20095;-64
2023/11/18 00:30:20;;;;;;;22.50;12.20;;;9.30;99.90;;;9.46;98.67;102140.09;4806443;29;20471;-63
2023/11/18 00:32:48;;;;;;;24.55;12.43;;;9.20;99.90;;;9.52;98.86;102152.53;4806457;29;20577;-63
2023/11/18 00:35:19;;;;;;;21.95;13.00;;;9.30;99.90;;;9.52;98.54;102152.53;4805122;29;20094;-64
2023/11/18 00:37:47;;;;;;;21.47;12.83;;;9.30;99.90;;;9.55;98.29;102156.13;4806698;29;20713;-63
2023/11/18 00:40:17;;;;;;;18.45;12.77;;;9.30;99.90;;;9.57;98.69;102150.88;4806544;29;20669;-64
2023/11/18 00:42:46;;;;;;;20.48;12.93;;;9.30;99.90;;;9.49;98.24;102150.72;4805302;29;20129;-63
2023/11/18 00:45:14;;;;;;;22.08;13.55;;;9.30;99.90;;;9.51;98.26;102151.66;4806201;29;20051;-64
2023/11/18 00:47:43;;;;;;;22.67;13.07;;;9.40;99.90;;;9.55;97.57;102156.13;4805268;29;20054;-63
2023/11/18 00:50:11;;;;;;;15.60;11.77;;;9.30;99.90;;;9.46;96.88;102155.94;4806468;29;20471;-63
2023/11/18 00:52:42;;;;;;;20.08;11.85;;;9.30;99.90;;;9.36;97.04;102151.34;4806377;29;20134;-63
2023/11/18 00:55:11;;;;;;;26.02;12.80;;;9.30;99.90;;;9.34;96.86;102145.13;4806314;29;20421;-63
2023/11/18 00:57:40;;;;;;;21.60;12.98;;;9.20;99.90;;;9.28;97.82;102149.38;4806351;29;20085;-64
2023/11/18 01:00:15;;;;;;;19.70;11.93;;;9.20;99.90;;;9.35;97.84;102146.91;4805012;29;20545;-63
2023/11/18 01:02:46;;;;;;;20.95;11.57;;;9.20;99.90;;;9.39;97.47;102147.88;4804045;29;20150;-63
2023/11/18 01:05:15;;;;;;;21.52;12.05;;;9.20;99.90;;;9.40;97.86;102154.94;4806132;29;20070;-64
2023/11/18 01:07:45;;;;;;;19.80;12.10;;;9.20;99.90;;;9.39;97.53;102169.00;4804953;29;20103;-63
2023/11/18 01:10:14;;;;;;;23.63;11.65;;;9.20;99.90;;;9.40;97.92;102158.47;4804904;29;20477;-63
2023/11/18 01:12:44;;;;;;;18.75;11.70;;;9.20;99.90;;;9.42;97.78;102156.75;4806081;29;20046;-64
2023/11/18 01:15:14;;;;;;;17.17;11.75;;;9.30;99.90;;;9.36;97.07;102156.63;4806123;29;20050;-64
2023/11/18 01:17:42;;;;;;;18.10;11.63;;;9.20;99.90;;;9.35;97.37;102149.53;4806088;29;20051;-64
2023/11/18 01:20:13;;;;;;;20.38;12.55;;;9.20;99.90;;;9.22;98.61;102144.84;4806033;29;20051;-63
2023/11/18 01:22:43;;;;;;;19.50;12.60;;;9.10;99.90;;;9.09;99.57;102153.38;4805799;29;20138;-64
2023/11/18 01:25:13;;;;;;;18.65;12.73;;;8.90;99.90;;;9.23;99.87;102153.69;4805653;29;20509;-63
2023/11/18 01:27:41;;;;;;;21.25;12.27;;;9.00;99.90;;;9.35;100.00;102164.50;4805970;29;20090;-64
2023/11/18 01:30:11;;;;;;;22.30;13.20;;;9.10;99.90;;;9.43;99.56;102169.06;4805670;29;20055;-63
2023/11/18 01:32:40;;;;;;;21.33;13.02;;;9.20;99.90;;;9.49;99.37;102173.59;4805986;29;20051;-64
2023/11/18 01:35:12;;;;;;;23.48;13.30;;;9.20;99.90;;;9.45;99.24;102169.09;4804692;29;20469;-64
2023/11/18 01:37:40;;;;;;;20.48;13.23;;;9.30;99.90;;;9.45;99.57;102167.34;4804898;29;20057;-63
2023/11/18 01:40:12;;;;;;;19.50;12.90;;;9.20;99.90;;;9.18;100.00;102164.13;4805985;29;20055;-63
2023/11/18 01:42:46;;;;;;;22.98;14.13;;;9.00;99.90;;;9.13;100.00;102168.44;4804437;29;20075;-64
2023/11/18 01:45:16;;;;;;;20.88;14.15;;;8.90;99.90;;;9.08;100.00;102172.69;4805848;29;20050;-64
2023/11/18 01:47:48;;;;;;;23.13;14.35;;;8.90;99.90;;;9.07;100.00;102169.19;4805902;29;20050;-64
2023/11/18 01:50:18;;;;;;;25.40;14.55;;;8.80;99.90;;;8.97;100.00;102171.56;4804509;29;20058;-64
2023/11/18 01:52:48;;;;;;;21.23;14.50;;;8.80;99.90;;;8.97;100.00;102161.00;4806038;29;20055;-64
2023/11/18 01:55:16;;;;;;;20.92;14.20;;;8.70;99.90;;;9.04;100.00;102163.81;4805708;29;20050;-64
2023/11/18 01:57:46;;;;;;;23.58;14.73;;;8.80;99.90;;;9.13;100.00;102162.25;4805367;29;20506;-64
2023/11/18 02:00:17;;;;;;;25.25;15.32;;;8.90;99.90;;;9.32;100.00;102172.34;4804493;29;20161;-63
2023/11/18 02:02:46;;;;;;;24.42;15.35;;;9.00;99.90;;;9.27;100.00;102172.22;4804090;29;20146;-64
2023/11/18 02:05:16;;;;;;;22.85;15.07;;;9.10;99.90;;;9.42;100.00;102180.50;4805617;29;20657;-65
2023/11/18 02:07:46;;;;;;;23.50;15.27;;;9.20;99.90;;;9.54;100.00;102179.88;4819630;29;20050;-64
2023/11/18 02:10:15;;;;;;;26.88;15.02;;;9.30;99.90;;;9.60;100.00;102175.59;4805573;29;20387;-63
2023/11/18 02:12:52;;;;;;;21.20;15.07;;;9.40;99.90;;;9.64;100.00;102181.84;4805272;29;20050;-64
2023/11/18 02:15:23;;;;;;;27.40;15.13;;;9.40;99.90;;;9.63;100.00;102175.69;4806298;29;20058;-64
2023/11/18 02:17:54;;;;;;;20.27;14.65;;;9.40;99.90;;;9.53;100.00;102164.88;4807905;29;20085;-64
2023/11/18 02:20:24;;;;;;;24.60;15.80;;;9.40;99.90;;;9.31;100.00;102152.09;4809285;29;20100;-64
2023/11/18 02:22:53;;;;;;;22.35;15.63;;;9.20;99.90;;;8.97;100.00;102155.72;4809096;29;20054;-64
2023/11/18 02:25:26;;;;;;;28.73;16.77;;;8.80;99.90;;;8.34;100.00;102051.41;4807610;29;20115;-64
2023/11/18 02:27:57;;;;;;;23.77;16.55;;;8.70;99.90;;;8.98;100.00;102149.63;4808960;29;20054;-64
2023/11/18 02:30:27;;;;;;;28.13;17.38;;;8.70;99.90;;;8.98;100.00;102141.69;4807653;29;20404;-64
2023/11/18 02:33:02;;;;;;;28.85;17.48;;;8.70;99.90;;;9.02;100.00;102136.50;4808903;29;20123;-64
2023/11/18 02:35:37;;;;;;;29.23;18.27;;;8.80;99.90;;;9.16;100.00;102131.53;4807509;29;20165;-64
2023/11/18 02:38:07;;;;;;;27.90;18.95;;;8.90;99.90;;;9.22;100.00;102139.59;4808735;29;20049;-64
2023/11/18 02:40:40;;;;;;;26.88;17.58;;;9.00;99.90;;;9.27;100.00;102137.91;4808968;29;20103;-64
2023/11/18 02:43:11;;;;;;;30.92;18.52;;;9.10;99.90;;;9.34;100.00;102137.22;4808620;29;20137;-64
2023/11/18 02:45:41;;;;;;;28.30;18.90;;;9.10;99.90;;;9.37;100.00;102131.97;4808596;29;20451;-64
2023/11/18 02:48:10;;;;;;;25.70;17.77;;;9.20;99.90;;;9.46;100.00;102129.53;4808587;29;20062;-64
2023/11/18 02:50:41;;;;;;;30.70;18.15;;;9.20;99.90;;;9.39;100.00;102117.06;4807275;29;20058;-64
2023/11/18 02:53:10;;;;;;;32.38;17.90;;;9.20;99.90;;;9.16;100.00;102113.03;4807483;29;20066;-64
2023/11/18 02:55:40;;;;;;;27.63;16.90;;;9.00;99.90;;;8.95;100.00;102113.47;4808431;29;20074;-64
2023/11/18 02:58:10;;;;;;;;;;;8.80;99.90;;;9.02;100.00;102120.66;4808935;29;20050;-64
2023/11/18 03:00:39;;;;;;;22.73;16.67;;;8.80;99.90;;;9.12;100.00;102115.63;4822066;29;19978;-64
2023/11/18 03:03:07;;;;;;;29.58;16.08;;;8.90;99.90;;;9.02;100.00;102114.50;4806852;29;20467;-64
2023/11/18 03:05:37;;;;;;;24.02;15.57;;;8.80;99.90;;;8.99;100.00;102112.69;4808292;29;20141;-64
2023/11/18 03:08:06;;;;;;;32.25;16.92;;;8.80;99.90;;;8.94;100.00;102111.69;4808244;29;20065;-64
2023/11/18 03:10:35;;;;;;;32.35;16.73;;;8.80;99.90;;;8.90;100.00;102101.06;4806631;29;20079;-64
2023/11/18 03:13:04;;;;;;;27.77;16.42;;;8.80;99.90;;;8.97;100.00;102097.69;4808339;29;20057;-64
2023/11/18 03:15:33;;;;;;;22.50;16.02;;;8.80;99.90;;;8.83;100.00;102100.00;4808302;29;20051;-64
2023/11/18 03:18:02;;;;;;;28.23;15.73;;;8.80;99.90;;;8.79;100.00;102098.16;4807794;29;20535;-64
2023/11/18 03:20:31;;;;;;;28.20;15.05;;;8.70;99.90;;;8.76;100.00;102089.28;4821933;29;20292;-64
2023/11/18 03:23:01;;;;;;;29.95;15.55;;;8.70;99.90;;;8.70;100.00;102087.41;4807891;29;20067;-64
2023/11/18 03:25:30;;;;;;;24.83;14.70;;;8.70;99.90;;;8.72;100.00;102076.91;4807627;29;20434;-64
2023/11/18 03:27:59;;;;;;;25.08;14.98;;;8.60;99.90;;;8.64;100.00;102065.28;4807557;29;20066;-64
2023/11/18 03:30:28;;;;;;;28.17;15.23;;;8.60;99.90;;;8.57;100.00;102071.28;4808013;29;20133;-65
2023/11/18 03:32:58;;;;;;;28.10;14.90;;;8.50;99.90;;;8.50;100.00;102067.59;4807903;29;20051;-64
2023/11/18 03:35:27;;;;;;;26.25;14.27;;;8.40;99.90;;;8.48;100.00;102063.16;4807539;29;20138;-64
2023/11/18 03:37:55;;;;;;;26.27;14.65;;;8.50;99.90;;;8.54;100.00;102050.09;4807722;29;20130;-64
2023/11/18 03:40:24;;;;;;;25.92;14.15;;;8.40;99.90;;;8.58;100.00;102041.41;4807374;29;20059;-64
2023/11/18 03:42:53;;;;;;;25.25;13.80;;;8.50;99.90;;;8.56;100.00;102048.38;4807739;29;20077;-64
2023/11/18 03:45:22;;;;;;;25.75;13.68;;;8.50;99.90;;;8.55;100.00;102047.50;4808034;29;20047;-64
2023/11/18 03:47:51;;;;;;;23.98;12.55;;;8.50;99.90;;;8.58;100.00;102052.84;4806238;29;20047;-64
2023/11/18 03:50:21;;;;;;;22.23;13.45;;;8.50;99.90;;;8.60;100.00;102055.50;4807461;29;20054;-64
2023/11/18 03:52:49;;;;;;;24.23;14.00;;;8.50;99.90;;;8.71;100.00;102049.63;4807446;29;20054;-64
2023/11/18 03:55:19;;;;;;;24.98;13.10;;;8.60;99.90;;;8.68;100.00;102044.28;4807353;29;20323;-64
2023/11/18 03:57:47;;;;;;;28.92;13.80;;;8.60;99.90;;;8.61;100.00;102028.31;4807312;29;20058;-64
2023/11/18 04:00:18;;;;;;;28.27;14.20;;;8.60;99.90;;;8.64;100.00;102025.72;4807512;29;20104;-64
2023/11/18 04:02:46;;;;;;;24.00;13.55;;;8.60;99.90;;;8.57;100.00;102024.72;4805935;29;20054;-64
2023/11/18 04:05:15;;;;;;;25.50;14.43;;;8.50;99.90;;;8.57;100.00;102010.63;4807135;29;20042;-64
2023/11/18 04:07:45;;;;;;;24.30;14.40;;;8.50;99.90;;;8.59;100.00;102014.19;4805899;29;20051;-63
2023/11/18 04:10:13;;;;;;;26.88;15.05;;;8.50;99.90;;;8.55;100.00;102015.88;4805847;29;20062;-64
2023/11/18 04:12:46;;;;;;;25.77;14.27;;;8.50;99.90;;;8.52;100.00;101999.97;4807331;29;20050;-63
2023/11/18 04:15:15;;;;;;;28.10;14.60;;;8.50;99.90;;;8.47;100.00;101985.81;4805860;29;20406;-64
2023/11/18 04:17:44;;;;;;;32.60;16.25;;;8.50;99.90;;;8.50;100.00;101990.22;4807047;29;20043;-63
2023/11/18 04:20:15;;;;;;;29.90;15.13;;;8.40;99.90;;;8.45;100.00;101987.53;4807048;29;20054;-63
2023/11/18 04:22:45;;;;;;;28.10;15.63;;;8.40;99.90;;;8.56;100.00;101982.47;4806977;29;20341;-63
2023/11/18 04:25:15;;;;;;;27.67;15.52;;;8.40;99.90;;;8.53;100.00;101988.59;4805563;29;20054;-63
2023/11/18 04:27:43;;;;;;;30.05;16.52;;;8.40;99.90;;;8.58;100.00;101992.19;4806599;29;20097;-63
2023/11/18 04:30:15;;;;;;;29.65;17.25;;;8.50;99.90;;;8.58;100.00;101978.09;4806584;29;20058;-63
2023/11/18 04:32:43;;;;;;;30.98;16.38;;;8.50;99.90;;;8.40;100.00;101951.38;4805487;29;20108;-63
2023/11/18 04:35:12;;;;;;;26.50;17.10;;;8.60;99.90;;;8.56;100.00;101987.72;4806975;29;20069;-64
2023/11/18 04:37:42;;;;;;;31.05;16.70;;;8.50;99.90;;;8.56;100.00;101979.81;4806272;29;20082;-63
2023/11/18 04:40:13;;;;;;;27.70;16.20;;;8.40;99.90;;;8.60;100.00;101979.03;4805205;29;20055;-63
2023/11/18 04:42:42;;;;;;;33.38;16.55;;;8.50;99.90;;;8.56;100.00;101969.28;4806633;29;20127;-63
2023/11/18 04:45:14;;;;;;;;;;;8.50;99.90;;;8.57;100.00;101966.69;4807206;29;20112;-64
2023/11/18 04:47:44;;;;;;;31.83;16.92;;;8.50;99.90;;;8.58;100.00;101970.19;4820543;29;19933;-63
2023/11/18 04:50:14;;;;;;;28.95;16.58;;;8.50;99.90;;;8.61;100.00;101967.66;4806510;29;20412;-64
2023/11/18 04:52:43;;;;;;;28.37;16.70;;;8.50;99.90;;;8.53;100.00;101951.66;4806199;29;20143;-63
2023/11/18 04:55:14;;;;;;;26.30;16.50;;;8.50;99.90;;;8.55;100.00;101952.59;4805090;29;20766;-63
2023/11/18 04:57:43;;;;;;;30.45;16.05;;;8.50;99.90;;;8.66;100.00;101952.78;4806274;29;20051;-63
2023/11/18 05:00:16;;;;;;;27.30;16.25;;;8.50;99.90;;;8.64;100.00;101976.50;4805008;29;20059;-63
2023/11/18 05:02:47;;;;;;;30.30;16.80;;;8.50;99.90;;;8.58;100.00;101936.81;4806172;29;20047;-63
2023/11/18 05:05:16;;;;;;;30.73;16.30;;;8.50;99.90;;;8.32;100.00;101908.13;4806283;29;20050;-64
2023/11/18 05:07:45;;;;;;;26.42;16.20;;;8.50;99.90;;;8.58;100.00;101934.19;4805933;29;20042;-64
2023/11/18 05:10:15;;;;;;;33.10;15.88;;;8.40;99.90;;;8.59;100.00;101935.06;4805886;29;20055;-64
2023/11/18 05:12:44;;;;;;;33.13;16.50;;;8.50;99.90;;;8.59;100.00;101933.34;4806165;29;20078;-63
2023/11/18 05:15:12;;;;;;;26.08;15.90;;;8.50;99.90;;;8.59;100.00;101927.16;4805792;29;20057;-63
2023/11/18 05:17:41;;;;;;;28.42;16.20;;;8.50;99.90;;;8.63;100.00;101913.19;4804793;29;20396;-63
2023/11/18 05:20:11;;;;;;;32.65;17.15;;;8.50;99.90;;;8.62;100.00;101928.13;4805810;29;20108;-63
2023/11/18 05:22:39;;;;;;;29.73;17.25;;;8.50;99.90;;;8.58;100.00;101926.28;4806279;29;20057;-63
2023/11/18 05:25:09;;;;;;;27.15;16.35;;;8.50;99.90;;;8.61;100.00;101918.44;4805671;29;20151;-63
2023/11/18 05:27:40;;;;;;;33.03;17.45;;;8.50;99.90;;;8.52;100.00;101914.69;4805984;29;20130;-63
2023/11/18 05:30:11;;;;;;;28.92;16.08;;;8.40;99.90;;;8.56;100.00;101906.88;4805712;29;20074;-63
2023/11/18 05:32:40;;;;;;;28.60;15.98;;;8.40;99.90;;;8.52;100.00;101898.88;4804493;29;20055;-63
2023/11/18 05:35:11;;;;;;;29.95;16.90;;;8.40;99.90;;;8.48;100.00;101903.19;4805581;29;20053;-63
2023/11/18 05:37:40;;;;;;;34.33;17.35;;;8.40;99.90;;;8.46;100.00;101885.59;4805865;29;20070;-63
2023/11/18 05:40:11;;;;;;;28.90;17.40;;;8.50;99.90;;;8.50;100.00;101897.94;4805789;29;20055;-63
2023/11/18 05:42:43;;;;;;;32.47;17.50;;;8.40;99.90;;;8.43;100.00;101890.78;4805694;29;20062;-63
2023/11/18 05:45:17;;;;;;;33.83;18.92;;;8.30;99.90;;;8.33;100.00;101886.16;4806045;29;20489;-64
2023/11/18 05:47:46;;;;;;;29.70;18.27;;;8.20;99.90;;;8.32;100.00;101871.22;4805537;29;20449;-63
2023/11/18 05:50:15;;;;;;;35.58;18.95;;;8.20;99.90;;;8.31;100.00;101869.44;4807648;29;20561;-63
2023/11/18 05:52:44;;;;;;;31.35;17.88;;;8.20;99.90;;;8.26;100.00;101871.09;4808222;29;20057;-63
2023/11/18 05:55:12;;;;;;;37.15;18.70;;;8.10;99.90;;;8.31;100.00;101887.88;4809358;29;20061;-64
2023/11/18 05:57:45;;;;;;;34.05;18.88;;;8.20;99.90;;;8.35;100.00;101880.09;4808163;29;20107;-63
2023/11/18 06:00:16;;;;;;;35.05;18.83;;;8.20;99.90;;;8.35;100.00;101879.19;4809124;29;20051;-64
2023/11/18 06:02:55;;;;;;;33.67;19.15;;;8.20;99.90;;;8.33;100.00;101867.72;4809131;29;20074;-63
2023/11/18 06:05:26;;;;;;;34.25;17.85;;;8.20;99.90;;;8.21;100.00;101860.41;4807990;29;20088;-63
2023/11/18 06:07:54;;;;;;;32.47;18.73;;;8.10;99.90;;;8.30;100.00;101872.94;4809221;29;20055;-63
2023/11/18 06:10:23;;;;;;;32.00;17.73;;;8.10;99.90;;;8.28;100.00;101861.47;4809147;29;20061;-63
2023/11/18 06:12:53;;;;;;;37.65;18.48;;;8.20;99.90;;;8.27;100.00;101865.84;4807947;29;20053;-63
2023/11/18 06:15:22;;;;;;;28.00;17.58;;;8.20;99.90;;;8.23;100.00;101860.47;4809412;29;20149;-63
2023/11/18 06:17:50;;;;;;;30.08;18.00;;;8.10;99.90;;;8.32;100.00;101868.59;4807817;29;20054;-63
2023/11/18 06:20:20;;;;;;;31.70;17.80;;;8.20;99.90;;;8.36;100.00;101867.81;4807451;29;20062;-64
2023/11/18 06:22:48;;;;;;;32.90;18.55;;;8.20;99.90;;;8.28;100.00;101869.38;4808987;29;20051;-63
2023/11/18 06:25:18;;;;;;;31.67;17.10;;;8.20;99.90;;;8.23;100.00;101860.47;4808609;29;20141;-63
2023/11/18 06:27:47;;;;;;;33.65;17.67;;;8.10;99.90;;;8.23;100.00;101849.94;4808599;29;20126;-63
2023/11/18 06:30:17;;;;;;;30.80;17.17;;;8.10;99.90;;;8.23;100.00;101856.97;4808549;29;20513;-64
2023/11/18 06:32:46;;;;;;;29.05;17.17;;;8.10;99.90;;;8.23;100.00;101852.56;4808967;29;20046;-63
2023/11/18 06:35:15;;;;;;;35.08;18.13;;;8.10;99.90;;;8.23;100.00;101854.34;4808521;29;20532;-64
2023/11/18 06:37:44;;;;;;;35.92;18.10;;;8.10;99.90;;;8.25;100.00;101858.75;4807506;29;20118;-63
2023/11/18 06:40:18;;;;;;;32.53;17.52;;;8.20;99.90;;;8.28;100.00;101856.22;4808320;29;20112;-63
2023/11/18 06:42:47;;;;;;;34.72;17.30;;;8.10;99.90;;;8.28;100.00;101856.22;4808412;29;20489;-63
2023/11/18 06:45:17;;;;;;;29.52;16.50;;;8.20;99.90;;;8.30;100.00;101849.22;4808462;29;20063;-63
2023/11/18 06:47:46;;;;;;;31.08;16.98;;;8.20;99.90;;;8.35;100.00;101839.66;4808294;29;20055;-63
2023/11/18 06:50:15;;;;;;;35.72;17.60;;;8.20;99.90;;;8.17;100.00;101822.56;4808199;29;20147;-64
2023/11/18 06:52:44;;;;;;;32.58;16.42;;;8.20;99.90;;;8.32;100.00;101836.97;4808718;29;20057;-64
2023/11/18 06:55:16;;;;;;;29.05;15.82;;;8.30;99.90;;;8.40;100.00;101838.00;4808419;29;20055;-65
2023/11/18 06:57:45;;;;;;;34.10;15.60;;;8.30;99.90;;;8.40;100.00;101841.50;4808079;29;20063;-64
2023/11/18 07:00:15;;;;;;;35.38;15.60;;;8.30;99.90;;;8.48;100.00;101847.84;4808056;29;20050;-64
2023/11/18 07:02:47;;;;;;;29.65;14.95;;;8.30;99.90;;;8.51;100.00;101883.94;4806095;29;20055;-64
2023/11/18 07:05:15;;;;;;;37.80;15.52;;;8.40;99.90;;;8.64;100.00;101856.94;4807914;29;20485;-64
2023/11/18 07:07:44;;;;;;;31.25;15.85;;;8.50;99.90;;;8.63;100.00;101856.03;4808188;29;20058;-64
2023/11/18 07:10:13;;;;;;;32.90;16.67;;;8.50;99.90;;;8.66;100.00;101856.09;4808175;29;20055;-64
2023/11/18 07:12:42;;;;;;;30.73;14.70;;;8.60;99.90;;;8.65;100.00;101849.03;4808117;29;20133;-64
2023/11/18 07:15:11;;;;;;;28.27;15.23;;;8.60;99.90;;;8.57;100.00;101855.03;4807682;29;20055;-64
2023/11/18 07:17:40;;;;;;;29.25;15.15;;;8.50;99.90;;;8.72;100.00;101860.59;4806752;29;20565;-64
2023/11/18 07:20:13;;;;;;;38.55;15.88;;;8.60;99.90;;;8.67;100.00;101860.50;4807989;29;20066;-64
2023/11/18 07:22:41;;;;;;;32.42;15.65;;;8.60;99.90;;;8.60;100.00;101856.00;4808006;29;20398;-63
2023/11/18 07:25:10;;;;;;;37.42;15.82;;;8.50;99.90;;;8.60;100.00;101860.38;4808074;29;20047;-64
2023/11/18 07:27:38;;;;;;;34.53;14.50;;;8.50;99.90;;;8.63;100.00;101855.16;4807590;29;20158;-64
2023/11/18 07:30:10;;;;;;;31.95;15.95;;;8.50;99.90;;;8.61;100.00;101855.16;4807458;29;20050;-63
2023/11/18 07:32:40;;;;;;;31.70;15.30;;;8.50;99.90;;;8.57;100.00;101840.13;4807441;29;20058;-64
2023/11/18 07:35:11;;;;;;;30.88;15.90;;;8.50;99.90;;;8.52;100.00;101847.03;4808038;29;20160;-63
2023/11/18 07:37:40;;;;;;;30.50;14.30;;;8.40;99.90;;;8.47;100.00;101832.88;4807528;29;20051;-64
2023/11/18 07:40:11;;;;;;;29.17;15.25;;;8.30;99.90;;;8.45;100.00;101838.97;4807657;29;20058;-63
2023/11/18 07:42:40;;;;;;;35.75;15.63;;;8.30;99.90;;;8.37;100.00;101835.28;4807455;29;20061;-62
2023/11/18 07:45:17;;;;;;;30.95;14.90;;;8.30;99.90;;;8.40;100.00;101840.66;4807287;29;20090;-62
2023/11/18 07:47:47;;;;;;;30.80;15.32;;;8.20;99.90;;;8.41;100.00;101829.22;4807207;29;20050;-63
2023/11/18 07:50:21;;;;;;;29.30;15.63;;;8.30;99.90;;;8.49;100.00;101830.28;4807092;29;20070;-63
2023/11/18 07:52:50;;;;;;;28.50;14.43;;;8.30;99.90;;;8.48;100.00;101826.75;4807159;29;20104;-63
2023/11/18 07:55:19;;;;;;;34.55;14.82;;;8.30;99.90;;;8.34;100.00;101812.44;4807105;29;20039;-63
2023/11/18 07:57:47;;;;;;;26.92;14.13;;;8.30;99.90;;;8.37;100.00;101814.22;4807535;29;20054;-64
2023/11/18 08:00:16;;;;;;;29.00;13.30;;;8.30;99.90;;;8.33;100.00;101817.66;4806978;29;20410;-64
2023/11/18 08:02:45;;;;;;;34.55;13.32;;;8.20;99.90;;;8.43;100.00;101819.59;4806767;29;20057;-63
2023/11/18 08:05:15;;;;;;;26.73;13.05;;;8.30;99.90;;;8.36;100.00;101799.28;4806925;29;20508;-64
2023/11/18 08:07:45;;;;;;;29.25;13.48;;;8.30;99.90;;;8.46;100.00;101825.81;4806950;29;20562;-62
2023/11/18 08:10:18;;;;;;;28.85;13.68;;;8.30;99.90;;;8.36;100.00;101823.00;4807406;29;20050;-61
2023/11/18 08:12:48;;;;;;;31.15;13.38;;;8.30;99.90;;;8.36;100.00;101823.00;4806084;29;20043;-63
2023/11/18 08:15:16;;;;;;;26.30;13.23;;;8.20;99.90;;;8.33;100.00;101812.38;4820651;29;20047;-61
2023/11/18 08:17:44;;;;;;;29.83;13.15;;;8.20;99.90;;;8.33;100.00;101809.72;4806749;29;20054;-60
2023/11/18 08:20:14;;;;;;;24.02;12.63;;;8.20;99.90;;;8.35;100.00;101810.66;4806965;29;20046;-63
2023/11/18 08:22:44;;;;;;;32.05;13.40;;;8.20;99.90;;;8.33;100.00;101817.66;4806575;29;20080;-62
2023/11/18 08:25:14;;;;;;;;;;;8.20;99.90;;;8.31;100.00;101814.97;4807608;29;20062;-62
2023/11/18 08:27:43;;;;;;;24.75;12.95;;;8.20;99.90;;;8.28;100.00;101803.50;4820951;29;20352;-62
2023/11/18 08:30:13;;;;;;;25.02;12.20;;;8.20;99.90;;;8.40;100.00;101812.50;4807036;29;20153;-61
2023/11/18 08:32:46;;;;;;;25.48;12.77;;;8.20;99.90;;;8.36;100.00;101796.63;4806555;29;20082;-60
2023/11/18 08:35:16;;;;;;;28.20;12.23;;;8.20;99.90;;;8.36;100.00;101791.38;4806506;29;20076;-65
2023/11/18 08:37:47;;;;;;;25.50;12.40;;;8.20;99.90;;;8.33;100.00;101780.75;4805377;29;20413;-65
2023/11/18 08:40:16;;;;;;;24.30;12.00;;;8.20;99.90;;;8.29;100.00;101771.91;4806704;29;20146;-62
2023/11/18 08:42:49;;;;;;;25.00;12.05;;;8.10;99.90;;;8.27;100.00;101767.44;4806313;29;20083;-63
2023/11/18 08:45:27;;;;;;;23.95;12.23;;;8.10;99.90;;;8.19;100.00;101757.63;4806536;29;20111;-63
2023/11/18 08:47:56;;;;;;;25.77;12.23;;;8.10;99.90;;;8.34;100.00;101757.06;4806256;29;20051;-64
2023/11/18 08:50:27;;;;;;;19.55;11.10;;;8.20;99.90;;;8.36;100.00;101760.63;4805240;29;20074;-64
2023/11/18 08:52:58;;;;;;;25.60;11.07;;;8.20;99.90;;;8.35;100.00;101757.94;4806198;29;20059;-63
2023/11/18 08:55:41;;;;;;;28.10;11.23;;;8.20;99.90;;;8.32;100.00;101757.91;4806238;29;20070;-63
2023/11/18 08:58:19;;;;;;;20.40;11.55;;;8.20;99.90;;;8.37;100.00;101741.31;4806129;29;20118;-61
2023/11/18 09:00:53;;;;;;;24.30;10.75;;;8.20;99.90;;;8.36;100.00;101725.47;4806118;29;20050;-62
2023/11/18 09:03:35;;;;;;;19.83;10.88;;;8.30;99.90;;;8.32;100.00;101721.91;4806189;29;20061;-61
2023/11/18 09:06:17;;;;;;;27.85;11.60;;;8.30;99.90;;;8.42;100.00;101738.75;4806244;29;20047;-62
2023/11/18 09:08:52;;;;;;;25.55;10.85;;;8.30;99.90;;;8.33;100.00;101702.56;4806017;29;20461;-62
2023/11/18 09:11:27;;;;;;;26.33;11.30;;;8.30;99.90;;;8.41;100.00;101705.34;4806524;29;20401;-61
2023/11/18 09:13:59;;;;;;;22.17;9.93;;;8.30;99.90;;;8.42;100.00;101713.25;4806415;29;20058;-61
2023/11/18 09:16:29;;;;;;;23.33;11.35;;;8.30;99.90;;;8.44;100.00;101694.88;4805862;29;20050;-62
2023/11/18 09:18:59;;;;;;;23.85;11.00;;;8.30;99.90;;;8.43;100.00;101693.97;4806144;29;20169;-62
2023/11/18 09:21:29;;;;;;;25.17;10.52;;;8.30;99.90;;;8.53;100.00;101700.28;4806092;29;20051;-62
2023/11/18 09:23:59;;;;;;;24.52;10.85;;;8.40;99.90;;;8.52;100.00;101691.47;4805495;29;20163;-62
2023/11/18 09:26:29;;;;;;;25.50;10.60;;;8.40;99.90;;;8.52;100.00;101686.19;4805903;29;20054;-60
2023/11/18 09:29:01;;;;;;;;;;;8.40;99.90;;;8.48;100.00;101668.56;4806491;29;20059;-61
2023/11/18 09:31:31;;;;;;;27.38;10.90;;;8.40;99.90;;;8.57;100.00;101675.75;4805712;29;20380;-61
2023/11/18 09:34:01;;;;;;;18.42;9.18;;;8.40;99.90;;;8.69;100.00;101666.25;4806232;29;20051;-62
2023/11/18 09:36:29;;;;;;;26.23;9.50;;;8.60;99.90;;;8.65;100.00;101671.50;4806142;29;20047;-62
2023/11/18 09:38:59;;;;;;;22.63;9.52;;;8.50;99.90;;;8.67;100.00;101680.31;4805568;29;20047;-62
2023/11/18 09:41:29;;;;;;;20.17;9.57;;;8.60;99.90;;;8.71;100.00;101663.69;4805525;29;20103;-62
2023/11/18 09:44:02;;;;;;;20.58;8.90;;;8.60;99.90;;;8.76;100.00;101651.44;4805501;29;20331;-60
2023/11/18 09:46:32;;;;;;;24.15;9.10;;;8.60;99.90;;;8.79;100.00;101651.47;4819813;29;20058;-62
2023/11/18 09:49:15;;;;;;;21.15;8.95;;;8.70;99.90;;;8.76;100.00;101662.00;4805763;29;20061;-61
2023/11/18 09:51:47;;;;;;;20.25;8.70;;;8.60;99.90;;;8.78;100.00;101654.97;4805551;29;20472;-61
2023/11/18 09:54:41;;;;;;;22.00;8.32;;;8.70;99.90;;;8.68;100.00;101653.97;4819952;29;20079;-62
2023/11/18 09:57:18;;;;;;;20.45;8.70;;;8.70;99.90;;;8.88;100.00;101639.31;4805213;29;20561;-61
2023/11/18 09:59:58;;;;;;;25.52;7.88;;;8.70;99.90;;;8.89;100.00;101634.91;4805530;29;20047;-60
2023/11/18 10:02:27;;;;;;;19.83;8.10;;;8.80;99.90;;;8.87;100.00;101649.84;4805317;29;20408;-60
2023/11/18 10:04:58;;;;;;;17.55;7.47;;;8.80;99.90;;;8.88;100.00;101656.91;4805737;29;20063;-61
2023/11/18 10:07:32;;;;;;;17.90;7.90;;;8.70;99.90;;;8.82;100.00;101652.44;4805331;29;20058;-61
2023/11/18 10:10:03;;;;;;;19.00;7.55;;;8.80;99.90;;;8.98;100.00;101674.66;4805487;29;20138;-61
2023/11/18 10:12:32;;;;;;;;;;;8.80;99.90;;;9.12;100.00;101664.31;4804493;29;20467;-60
2023/11/18 10:15:03;;;;;;;20.20;8.50;;;9.00;99.90;;;9.03;100.00;101678.22;4805600;29;19929;-60
2023/11/18 10:17:32;;;;;;;20.33;7.95;;;9.00;99.90;;;8.96;100.00;101665.81;4805874;29;20058;-60
2023/11/18 10:20:00;;;;;;;20.00;8.32;;;8.90;99.90;;;8.95;100.00;101617.44;4805527;29;20043;-60